Time;durP1;ratioP1;P1;durP2;ratioP2;P2;SDS_P1;SDS_P2;PMS_P1;PMS_P2;Temp;Humidity;BMP_temperature;BMP_pressure;BME280_temperature;BME280_humidity;BME280_pressure;Samples;Min_cycle;Max_cycle;Signal;HPM_P1;HPM_P2
2021/03/24 00:00:40;;;;;;;4.40;3.17;;;20.20;50.40;;;;;;5083554;28;20044;-57
2021/03/24 00:03:06;;;;;;;4.22;2.58;;;20.20;50.30;;;;;;5081506;28;20037;-58
2021/03/24 00:05:35;;;;;;;3.47;2.60;;;20.20;50.30;;;;;;5084641;28;20462;-56
2021/03/24 00:08:01;;;;;;;3.83;2.60;;;20.20;50.30;;;;;;5082291;28;20031;-58
2021/03/24 00:10:28;;;;;;;3.20;2.67;;;20.20;50.20;;;;;;5084176;28;20028;-58
2021/03/24 00:12:55;;;;;;;3.55;2.45;;;20.20;50.10;;;;;;5081570;28;20044;-58
2021/03/24 00:15:22;;;;;;;3.83;2.55;;;20.20;50.10;;;;;;5080162;28;20423;-58
2021/03/24 00:17:49;;;;;;;4.72;2.65;;;20.20;50.10;;;;;;5080400;28;20024;-57
2021/03/24 00:20:16;;;;;;;3.10;2.20;;;20.20;50.10;;;;;;5087380;28;20063;-58
2021/03/24 00:22:42;;;;;;;3.95;2.78;;;20.20;49.90;;;;;;5078972;28;20028;-54
2021/03/24 00:25:09;;;;;;;5.07;2.65;;;20.20;49.90;;;;;;5081757;28;20028;-57
2021/03/24 00:27:35;;;;;;;3.25;2.55;;;20.20;50.00;;;;;;5071921;28;20047;-56
2021/03/24 00:30:03;;;;;;;3.42;2.63;;;20.20;49.80;;;;;;5072760;28;20453;-57
2021/03/24 00:32:29;;;;;;;2.90;2.25;;;20.20;49.80;;;;;;5079535;28;20384;-58
2021/03/24 00:34:55;;;;;;;3.63;2.50;;;20.20;49.70;;;;;;5091068;28;20032;-57
2021/03/24 00:37:21;;;;;;;4.28;2.70;;;20.20;49.70;;;;;;5075055;28;20121;-58
2021/03/24 00:39:46;;;;;;;3.00;2.50;;;20.20;49.60;;;;;;5089453;28;20209;-58
2021/03/24 00:42:12;;;;;;;3.63;2.47;;;20.20;49.60;;;;;;5076734;28;20067;-58
2021/03/24 00:44:37;;;;;;;4.10;3.08;;;20.20;49.50;;;;;;5071437;28;20028;-58
2021/03/24 00:47:03;;;;;;;3.50;2.47;;;20.20;49.50;;;;;;5088989;28;20040;-58
2021/03/24 00:49:29;;;;;;;4.68;2.92;;;20.20;49.50;;;;;;5080566;28;20042;-58
2021/03/24 00:51:55;;;;;;;3.70;2.65;;;20.20;49.30;;;;;;5091616;28;20055;-58
2021/03/24 00:54:21;;;;;;;3.15;2.30;;;20.20;49.30;;;;;;5082417;28;20393;-58
2021/03/24 00:56:46;;;;;;;2.80;2.28;;;20.20;49.30;;;;;;5082790;28;20045;-56
2021/03/24 00:59:14;;;;;;;3.53;2.40;;;20.20;49.20;;;;;;5082080;28;20031;-58
2021/03/24 01:01:39;;;;;;;3.72;2.58;;;20.20;49.10;;;;;;5077237;28;20113;-58
2021/03/24 01:04:06;;;;;;;3.85;2.83;;;20.20;49.10;;;;;;5072021;28;20430;-57
2021/03/24 01:06:32;;;;;;;3.35;2.55;;;20.20;49.10;;;;;;5073429;28;20469;-58
2021/03/24 01:08:58;;;;;;;5.03;2.70;;;20.20;49.10;;;;;;5072301;28;20039;-57
2021/03/24 01:11:24;;;;;;;3.03;2.22;;;20.20;49.00;;;;;;5071831;28;20040;-58
2021/03/24 01:13:50;;;;;;;3.85;2.83;;;20.20;49.00;;;;;;5071863;28;20090;-57
2021/03/24 01:16:16;;;;;;;3.95;2.30;;;20.20;49.00;;;;;;5085751;28;20461;-58
2021/03/24 01:18:42;;;;;;;3.88;2.40;;;20.20;49.50;;;;;;5089522;28;20070;-57
2021/03/24 01:21:08;;;;;;;3.28;2.63;;;20.20;48.90;;;;;;5071921;28;20393;-57
2021/03/24 01:23:33;;;;;;;3.70;2.50;;;20.20;48.80;;;;;;5078735;28;20028;-56
2021/03/24 01:25:59;;;;;;;3.72;2.55;;;20.20;48.80;;;;;;5091144;28;20087;-57
2021/03/24 01:28:28;;;;;;;3.38;2.60;;;20.20;48.80;;;;;;5084336;28;20032;-58
2021/03/24 01:30:56;;;;;;;4.25;2.45;;;20.20;48.70;;;;;;5081704;28;20542;-58
2021/03/24 01:33:22;;;;;;;3.15;2.50;;;20.20;48.70;;;;;;5077862;28;20040;-58
2021/03/24 01:35:47;;;;;;;2.92;2.33;;;20.20;48.50;;;;;;5086124;28;20031;-57
2021/03/24 01:38:13;;;;;;;3.20;2.25;;;20.20;48.50;;;;;;5073933;28;20452;-58
2021/03/24 01:40:42;;;;;;;4.45;2.90;;;20.20;48.50;;;;;;5089141;28;20077;-55
2021/03/24 01:43:19;;;;;;;4.30;2.85;;;20.20;48.40;;;;;;5091485;28;20028;-58
2021/03/24 01:46:22;;;;;;;3.85;2.95;;;20.20;48.40;;;;;;5077226;28;20033;-57
2021/03/24 01:49:11;;;;;;;3.28;2.38;;;20.20;48.40;;;;;;5088442;28;20020;-57
2021/03/24 01:51:44;;;;;;;3.08;2.03;;;20.20;48.30;;;;;;5071763;28;20037;-58
2021/03/24 01:54:15;;;;;;;3.67;2.75;;;20.30;48.30;;;;;;5085142;28;20040;-58
2021/03/24 01:56:45;;;;;;;2.75;2.28;;;20.20;48.10;;;;;;5081614;28;20036;-58
2021/03/24 01:59:11;;;;;;;3.10;2.25;;;20.20;48.20;;;;;;5083140;28;20021;-58
2021/03/24 02:01:37;;;;;;;2.80;2.28;;;20.20;48.20;;;;;;5090639;28;20032;-57
2021/03/24 02:04:03;;;;;;;2.80;2.35;;;20.20;48.10;;;;;;5078043;28;20039;-57
2021/03/24 02:06:38;;;;;;;3.08;2.42;;;20.20;48.10;;;;;;5094192;28;20051;-58
2021/03/24 02:09:12;;;;;;;4.10;2.70;;;20.30;48.10;;;;;;5086059;28;20039;-57
2021/03/24 02:12:13;;;;;;;2.80;2.15;;;20.30;48.10;;;;;;5094420;28;20032;-57
2021/03/24 02:15:01;;;;;;;3.25;2.70;;;20.20;48.00;;;;;;5044061;28;20542;-59
2021/03/24 02:17:30;;;;;;;3.25;2.40;;;20.30;48.00;;;;;;5093027;28;20142;-58
2021/03/24 02:20:28;;;;;;;2.95;2.45;;;20.30;47.90;;;;;;5079976;28;20100;-57
2021/03/24 02:23:00;;;;;;;3.60;2.20;;;20.30;47.90;;;;;;5080058;28;20032;-58
2021/03/24 02:25:30;;;;;;;5.20;2.95;;;20.30;47.90;;;;;;5093111;28;20034;-57
2021/03/24 02:27:59;;;;;;;3.30;2.47;;;20.30;47.90;;;;;;5088192;28;20039;-58
2021/03/24 02:30:31;;;;;;;3.38;2.50;;;20.20;47.70;;;;;;5082829;28;20031;-58
2021/03/24 02:33:35;;;;;;;3.22;2.15;;;20.30;47.80;;;;;;5086117;28;20044;-53
2021/03/24 02:36:06;;;;;;;2.58;2.30;;;20.30;47.70;;;;;;5012102;28;20144;-58
2021/03/24 02:38:35;;;;;;;3.80;2.28;;;20.30;47.70;;;;;;5079579;28;20040;-58
2021/03/24 02:41:02;;;;;;;3.17;2.35;;;20.30;47.70;;;;;;5076857;28;20032;-57
2021/03/24 02:43:31;;;;;;;3.53;2.53;;;20.30;47.60;;;;;;5080756;28;20036;-58
2021/03/24 02:45:59;;;;;;;3.40;2.53;;;20.30;47.60;;;;;;5082366;28;20491;-58
2021/03/24 02:48:29;;;;;;;3.28;2.15;;;20.30;47.60;;;;;;5075694;28;20078;-55
2021/03/24 02:50:57;;;;;;;2.40;2.03;;;20.30;47.50;;;;;;5080800;28;20024;-58
2021/03/24 02:53:26;;;;;;;3.25;2.28;;;20.30;47.50;;;;;;5075671;28;20086;-58
2021/03/24 02:55:56;;;;;;;3.60;2.35;;;20.30;47.40;;;;;;5073926;28;20036;-57
2021/03/24 02:58:21;;;;;;;3.08;2.30;;;20.30;47.40;;;;;;5082124;28;20473;-57
2021/03/24 03:00:48;;;;;;;4.30;2.58;;;20.30;47.30;;;;;;5082097;28;20028;-56
2021/03/24 03:03:22;;;;;;;3.78;2.40;;;20.30;47.30;;;;;;5080887;28;20122;-57
2021/03/24 03:05:50;;;;;;;4.32;2.38;;;20.30;47.30;;;;;;5075030;28;20080;-58
2021/03/24 03:08:19;;;;;;;3.97;2.47;;;20.30;47.20;;;;;;5075092;28;20111;-59
2021/03/24 03:11:03;;;;;;;2.83;2.10;;;20.30;47.10;;;;;;5081908;28;20031;-57
2021/03/24 03:13:40;;;;;;;2.80;2.30;;;20.30;47.10;;;;;;5087621;28;20055;-58
2021/03/24 03:16:11;;;;;;;2.97;2.35;;;20.30;47.10;;;;;;5090274;28;20028;-58
2021/03/24 03:18:54;;;;;;;2.40;2.00;;;20.30;47.10;;;;;;5077924;28;20032;-58
2021/03/24 03:21:53;;;;;;;3.47;2.25;;;20.30;47.00;;;;;;5090723;28;20528;-56
2021/03/24 03:24:22;;;;;;;2.80;2.30;;;20.30;47.00;;;;;;5040798;28;20041;-56
2021/03/24 03:26:53;;;;;;;3.50;2.42;;;20.30;47.00;;;;;;5092708;28;20028;-58
2021/03/24 03:29:21;;;;;;;2.88;2.08;;;20.30;46.90;;;;;;5076119;28;20028;-57
2021/03/24 03:31:50;;;;;;;2.70;2.00;;;20.30;46.90;;;;;;5080927;28;20036;-57
2021/03/24 03:34:20;;;;;;;3.83;2.08;;;20.30;46.80;;;;;;5087220;28;20423;-58
2021/03/24 03:36:50;;;;;;;5.25;2.63;;;20.30;46.90;;;;;;5092375;28;20496;-58
2021/03/24 03:39:20;;;;;;;3.25;2.30;;;20.30;46.80;;;;;;5084073;28;20485;-59
2021/03/24 03:41:47;;;;;;;3.30;2.33;;;20.30;46.70;;;;;;5072982;28;20043;-58
2021/03/24 03:44:15;;;;;;;2.95;1.90;;;20.30;46.80;;;;;;5090203;28;20530;-58
2021/03/24 03:46:51;;;;;;;2.42;2.10;;;20.30;46.70;;;;;;5088657;28;20032;-57
2021/03/24 03:49:17;;;;;;;2.97;2.17;;;20.30;46.70;;;;;;5091870;28;20028;-58
2021/03/24 03:52:07;;;;;;;3.28;2.30;;;20.30;46.60;;;;;;5089352;28;20043;-56
2021/03/24 03:55:07;;;;;;;3.10;2.53;;;20.30;46.60;;;;;;5072779;28;20429;-58
2021/03/24 03:58:05;;;;;;;3.80;2.17;;;20.30;46.60;;;;;;5078128;28;20032;-57
2021/03/24 04:00:50;;;;;;;3.90;2.15;;;20.30;46.50;;;;;;5067200;28;20044;-57
2021/03/24 04:03:20;;;;;;;2.92;2.55;;;20.30;46.50;;;;;;5091095;28;20103;-57
2021/03/24 04:05:58;;;;;;;3.17;2.28;;;20.30;46.40;;;;;;5088463;28;20056;-58
2021/03/24 04:08:31;;;;;;;2.90;2.53;;;20.30;46.40;;;;;;5072839;28;20028;-58
2021/03/24 04:11:00;;;;;;;2.95;2.35;;;20.30;46.40;;;;;;5081085;28;20052;-57
2021/03/24 04:13:28;;;;;;;2.72;2.30;;;20.30;46.40;;;;;;5079891;28;20042;-58
2021/03/24 04:15:57;;;;;;;3.08;2.15;;;20.30;46.30;;;;;;5074347;28;20101;-58
2021/03/24 04:18:28;;;;;;;2.70;2.25;;;20.30;46.30;;;;;;5091167;28;20383;-57
2021/03/24 04:20:55;;;;;;;3.03;2.40;;;20.30;46.30;;;;;;5091066;28;20399;-57
2021/03/24 04:23:26;;;;;;;3.47;2.38;;;20.30;46.30;;;;;;5077693;28;20140;-57
2021/03/24 04:25:58;;;;;;;3.03;2.25;;;20.30;46.20;;;;;;5085601;28;20078;-58
2021/03/24 04:28:26;;;;;;;;;;;20.30;46.20;;;;;;5074423;28;20063;-57
2021/03/24 04:31:12;;;;;;;3.42;2.17;;;20.30;46.20;;;;;;5091282;28;19955;-58
2021/03/24 04:33:39;;;;;;;3.47;2.20;;;20.30;46.20;;;;;;5072281;28;20037;-57
2021/03/24 04:36:37;;;;;;;2.88;2.25;;;20.30;46.20;;;;;;5090521;28;20050;-56
2021/03/24 04:39:19;;;;;;;3.45;2.33;;;20.30;46.10;;;;;;5083212;28;20042;-58
2021/03/24 04:41:46;;;;;;;2.95;2.35;;;20.30;46.10;;;;;;5084760;28;20020;-58
2021/03/24 04:44:15;;;;;;;4.32;2.60;;;20.30;46.00;;;;;;5091762;28;20028;-57
2021/03/24 04:46:45;;;;;;;2.58;1.90;;;20.30;46.00;;;;;;5080143;28;20413;-58
2021/03/24 04:49:15;;;;;;;3.63;2.35;;;20.30;46.00;;;;;;5090554;28;20090;-57
2021/03/24 04:51:42;;;;;;;3.15;2.28;;;20.30;45.90;;;;;;5091064;28;20039;-52
2021/03/24 04:54:19;;;;;;;3.30;2.45;;;20.30;45.90;;;;;;5090669;28;20417;-58
2021/03/24 04:56:53;;;;;;;2.88;2.40;;;20.30;45.90;;;;;;5082602;28;20469;-57
2021/03/24 04:59:33;;;;;;;3.33;2.13;;;20.30;45.90;;;;;;5083267;28;20035;-58
2021/03/24 05:02:19;;;;;;;2.85;1.90;;;20.30;45.80;;;;;;5089984;28;20074;-57
2021/03/24 05:04:45;;;;;;;3.10;2.08;;;20.30;45.80;;;;;;5071094;28;20031;-56
2021/03/24 05:07:16;;;;;;;3.30;2.10;;;20.30;45.80;;;;;;5073468;28;20393;-51
2021/03/24 05:09:46;;;;;;;2.40;1.90;;;20.40;45.80;;;;;;5071116;28;20032;-57
2021/03/24 05:12:36;;;;;;;2.53;2.08;;;20.40;45.80;;;;;;5080902;28;20027;-57
2021/03/24 05:15:07;;;;;;;3.08;2.30;;;20.30;45.70;;;;;;5091699;28;20213;-57
2021/03/24 05:17:34;;;;;;;4.07;2.40;;;20.30;45.70;;;;;;5074035;28;20029;-57
2021/03/24 05:20:09;;;;;;;2.30;2.10;;;20.30;45.70;;;;;;5091522;28;20036;-58
2021/03/24 05:22:43;;;;;;;4.05;2.47;;;20.40;45.70;;;;;;5073231;28;20036;-58
2021/03/24 05:25:21;;;;;;;3.10;2.30;;;20.40;45.70;;;;;;5089360;28;20031;-58
2021/03/24 05:27:51;;;;;;;3.17;2.35;;;20.30;45.70;;;;;;5077937;28;20166;-58
2021/03/24 05:30:27;;;;;;;3.83;2.17;;;20.30;45.60;;;;;;5075656;28;20066;-58
2021/03/24 05:33:01;;;;;;;2.80;2.33;;;20.40;45.60;;;;;;5089223;28;20702;-58
2021/03/24 05:35:50;;;;;;;3.10;2.45;;;20.30;45.60;;;;;;5091453;28;20032;-58
2021/03/24 05:38:29;;;;;;;3.85;2.40;;;20.30;45.60;;;;;;5079914;28;20063;-58
2021/03/24 05:41:13;;;;;;;2.95;2.15;;;20.30;45.60;;;;;;5070755;28;20036;-52
2021/03/24 05:43:56;;;;;;;3.53;2.42;;;20.30;45.50;;;;;;5071066;28;20086;-58
2021/03/24 05:46:59;;;;;;;3.75;2.15;;;20.30;45.50;;;;;;5080986;28;20028;-58
2021/03/24 05:49:40;;;;;;;3.83;2.60;;;20.30;45.50;;;;;;5079690;28;20427;-58
2021/03/24 05:52:12;;;;;;;4.03;2.38;;;20.40;45.50;;;;;;5071413;28;20579;-58
2021/03/24 05:54:51;;;;;;;2.92;2.33;;;20.30;45.30;;;;;;5087320;28;20063;-56
2021/03/24 05:57:31;;;;;;;2.67;2.15;;;20.40;45.40;;;;;;5070681;28;20115;-58
2021/03/24 06:00:21;;;;;;;3.95;2.40;;;20.40;45.40;;;;;;5082229;28;20079;-58
2021/03/24 06:03:01;;;;;;;3.30;2.10;;;20.40;45.30;;;;;;5073306;28;20525;-57
2021/03/24 06:05:32;;;;;;;3.00;2.40;;;20.40;45.40;;;;;;5085466;28;20040;-58
2021/03/24 06:08:06;;;;;;;2.30;2.10;;;20.40;45.30;;;;;;5087474;28;20028;-58
2021/03/24 06:10:44;;;;;;;3.83;2.80;;;20.30;45.30;;;;;;5076456;28;20032;-59
2021/03/24 06:13:18;;;;;;;3.15;2.28;;;20.40;45.30;;;;;;5089350;28;20055;-57
2021/03/24 06:16:21;;;;;;;3.97;2.25;;;20.40;45.20;;;;;;5085151;28;20476;-57
2021/03/24 06:19:05;;;;;;;4.97;2.40;;;20.40;45.20;;;;;;5083492;28;20428;-57
2021/03/24 06:21:52;;;;;;;3.17;2.30;;;20.40;45.30;;;;;;5070451;28;20519;-58
2021/03/24 06:24:44;;;;;;;2.70;2.17;;;20.40;45.20;;;;;;5072647;28;20052;-58
2021/03/24 06:27:28;;;;;;;3.93;2.63;;;20.40;45.20;;;;;;5076359;28;20044;-58
2021/03/24 06:30:17;;;;;;;2.67;2.03;;;20.40;45.20;;;;;;5087592;28;20529;-54
2021/03/24 06:33:14;;;;;;;4.15;2.70;;;20.40;45.20;;;;;;5089620;28;20458;-58
2021/03/24 06:35:55;;;;;;;5.05;2.03;;;20.40;45.40;;;;;;5089065;28;20024;-57
2021/03/24 06:38:32;;;;;;;4.57;2.30;;;20.40;45.60;;;;;;5083392;28;20029;-57
2021/03/24 06:41:24;;;;;;;3.15;2.25;;;20.40;45.80;;;;;;5071821;28;20454;-57
2021/03/24 06:44:18;;;;;;;3.15;2.53;;;20.40;45.90;;;;;;5090638;28;20071;-58
2021/03/24 06:47:00;;;;;;;4.32;3.05;;;20.50;46.30;;;;;;5083475;28;20028;-56
2021/03/24 06:49:44;;;;;;;4.40;2.60;;;20.50;46.80;;;;;;5082657;28;20055;-58
2021/03/24 06:52:47;;;;;;;3.58;2.53;;;20.50;47.10;;;;;;5092841;28;20043;-57
2021/03/24 06:55:45;;;;;;;5.07;2.85;;;20.50;47.20;;;;;;5088889;28;20081;-59
2021/03/24 06:58:52;;;;;;;11.95;6.85;;;20.40;45.70;;;;;;5086095;28;20028;-58
2021/03/24 07:01:45;;;;;;;15.38;4.72;;;20.20;40.30;;;;;;5049520;28;20075;-58
2021/03/24 07:04:47;;;;;;;19.05;9.10;;;20.20;44.50;;;;;;5082893;28;20032;-59
2021/03/24 07:07:42;;;;;;;15.30;10.13;;;20.00;37.20;;;;;;5081768;28;20052;-58
2021/03/24 07:10:50;;;;;;;17.17;7.75;;;19.90;37.40;;;;;;5055972;28;20047;-58
2021/03/24 07:13:34;;;;;;;19.83;6.53;;;19.80;40.90;;;;;;5074864;28;20489;-57
2021/03/24 07:16:27;;;;;;;14.40;6.40;;;19.90;44.50;;;;;;5082420;28;20372;-54
2021/03/24 07:18:58;;;;;;;14.05;5.80;;;20.00;45.10;;;;;;5090775;28;20461;-59
2021/03/24 07:21:52;;;;;;;14.23;5.45;;;20.10;45.20;;;;;;5093789;28;20381;-58
2021/03/24 07:24:30;;;;;;;11.80;6.38;;;20.10;45.00;;;;;;5077282;28;20089;-62
2021/03/24 07:27:02;;;;;;;14.90;9.57;;;20.00;40.60;;;;;;5086183;28;20127;-59
2021/03/24 07:29:56;;;;;;;19.23;10.40;;;18.20;34.50;;;;;;5080541;28;20068;-59
2021/03/24 07:32:33;;;;;;;15.27;10.50;;;16.40;37.00;;;;;;5074933;28;20028;-59
2021/03/24 07:35:26;;;;;;;17.00;11.45;;;15.60;38.80;;;;;;5086672;28;20074;-59
2021/03/24 07:38:05;;;;;;;15.43;10.75;;;15.20;38.80;;;;;;5087818;28;20055;-53
2021/03/24 07:40:49;;;;;;;17.85;11.30;;;15.20;39.10;;;;;;5076636;28;20024;-58
2021/03/24 07:43:34;;;;;;;17.08;10.27;;;15.10;39.40;;;;;;5084404;28;20021;-59
2021/03/24 07:46:26;;;;;;;15.65;10.57;;;15.00;39.60;;;;;;5079415;28;20165;-58
2021/03/24 07:49:21;;;;;;;14.38;8.95;;;16.00;38.80;;;;;;5074543;28;20549;-58
2021/03/24 07:52:08;;;;;;;12.90;8.55;;;17.50;37.70;;;;;;5073707;28;20436;-58
2021/03/24 07:54:36;;;;;;;12.52;8.10;;;18.20;37.60;;;;;;5080862;28;20472;-58
2021/03/24 07:57:16;;;;;;;12.05;7.32;;;18.60;37.70;;;;;;5077157;28;20035;-58
2021/03/24 08:00:04;;;;;;;11.25;7.45;;;18.80;37.80;;;;;;5074730;28;20039;-56
2021/03/24 08:02:56;;;;;;;11.45;6.97;;;19.00;38.10;;;;;;5085993;28;20027;-58
2021/03/24 08:06:05;;;;;;;10.50;6.47;;;19.10;38.30;;;;;;5086233;28;20079;-58
2021/03/24 08:08:41;;;;;;;9.20;6.10;;;19.20;38.60;;;;;;5087723;28;20081;-58
2021/03/24 08:11:21;;;;;;;8.88;6.07;;;19.30;38.90;;;;;;5074886;28;20119;-58
2021/03/24 08:14:07;;;;;;;10.27;5.90;;;19.40;39.10;;;;;;5076497;28;20025;-58
2021/03/24 08:16:50;;;;;;;8.07;5.50;;;19.50;39.20;;;;;;5074644;28;20028;-58
2021/03/24 08:19:21;;;;;;;7.20;5.22;;;19.50;39.20;;;;;;5083090;28;20418;-58
2021/03/24 08:22:28;;;;;;;7.30;4.82;;;19.60;39.40;;;;;;5091898;28;20024;-58
2021/03/24 08:25:12;;;;;;;7.60;5.32;;;19.60;39.40;;;;;;5083024;28;20089;-58
2021/03/24 08:27:49;;;;;;;7.65;5.28;;;19.70;39.50;;;;;;5085733;28;20076;-58
2021/03/24 08:30:29;;;;;;;8.05;5.72;;;19.70;39.60;;;;;;5087311;28;20427;-58
2021/03/24 08:33:31;;;;;;;7.25;4.70;;;19.70;39.50;;;;;;5072044;28;20020;-58
2021/03/24 08:36:05;;;;;;;7.40;4.93;;;19.70;39.70;;;;;;5082999;28;20028;-57
2021/03/24 08:38:54;;;;;;;7.65;5.63;;;19.70;39.90;;;;;;5086813;28;20032;-58
2021/03/24 08:41:57;;;;;;;6.75;3.97;;;19.80;40.50;;;;;;5079819;28;20020;-53
2021/03/24 08:44:43;;;;;;;7.43;4.35;;;19.80;40.00;;;;;;5073105;28;20032;-58
2021/03/24 08:47:12;;;;;;;8.38;4.10;;;19.80;40.10;;;;;;5073255;28;20024;-58
2021/03/24 08:49:42;;;;;;;8.25;4.53;;;19.90;40.30;;;;;;5091364;28;20573;-58
2021/03/24 08:52:24;;;;;;;6.13;4.50;;;19.90;40.30;;;;;;5083987;28;20024;-57
2021/03/24 08:55:07;;;;;;;6.18;4.13;;;19.90;40.30;;;;;;5079058;28;20024;-57
2021/03/24 08:57:56;;;;;;;5.45;4.00;;;19.90;40.40;;;;;;5076155;28;20067;-58
2021/03/24 09:00:38;;;;;;;7.53;4.15;;;20.00;40.50;;;;;;5075596;28;20107;-58
2021/03/24 09:03:27;;;;;;;6.60;4.10;;;20.00;40.70;;;;;;5091073;28;20034;-58
2021/03/24 09:06:07;;;;;;;5.28;3.78;;;20.00;40.70;;;;;;5083668;28;20564;-58
2021/03/24 09:08:49;;;;;;;6.05;4.50;;;20.00;40.70;;;;;;5072226;28;20303;-58
2021/03/24 09:11:38;;;;;;;4.80;3.65;;;20.00;40.70;;;;;;5071921;28;20056;-58
2021/03/24 09:14:15;;;;;;;5.25;3.75;;;20.00;40.80;;;;;;5078036;28;20067;-58
2021/03/24 09:17:01;;;;;;;5.85;4.05;;;20.00;40.90;;;;;;5072641;28;20020;-58
2021/03/24 09:19:32;;;;;;;5.78;3.50;;;20.00;40.90;;;;;;5088465;28;20111;-58
2021/03/24 09:22:27;;;;;;;4.65;3.60;;;20.10;41.10;;;;;;5086190;28;20051;-52
2021/03/24 09:25:19;;;;;;;5.28;3.22;;;20.10;41.00;;;;;;5057907;28;20036;-58
2021/03/24 09:28:07;;;;;;;6.30;3.67;;;20.10;41.00;;;;;;5090270;28;20028;-58
2021/03/24 09:30:51;;;;;;;4.85;3.33;;;20.10;41.20;;;;;;5080173;28;20040;-58
2021/03/24 09:33:35;;;;;;;4.55;3.15;;;20.20;41.60;;;;;;5078056;28;20058;-59
2021/03/24 09:36:30;;;;;;;5.78;3.58;;;20.20;41.70;;;;;;5087654;28;20384;-55
2021/03/24 09:38:57;;;;;;;5.47;3.58;;;20.20;41.80;;;;;;5089461;28;20055;-58
2021/03/24 09:41:43;;;;;;;6.65;3.55;;;20.20;42.00;;;;;;5075026;28;20040;-59
2021/03/24 09:44:15;;;;;;;10.88;3.17;;;20.30;42.20;;;;;;5070403;28;20074;-58
2021/03/24 09:46:43;;;;;;;8.45;3.17;;;20.20;42.40;;;;;;5080996;28;20028;-58
2021/03/24 09:49:27;;;;;;;6.53;3.10;;;20.30;42.40;;;;;;5081474;28;20077;-58
2021/03/24 09:52:21;;;;;;;5.90;3.30;;;20.30;42.50;;;;;;5079261;28;20027;-58
2021/03/24 09:55:03;;;;;;;6.53;3.20;;;20.30;43.00;;;;;;5084754;28;20024;-58
2021/03/24 09:58:05;;;;;;;5.32;3.10;;;20.30;42.90;;;;;;5082214;28;20175;-57
2021/03/24 10:00:35;;;;;;;7.70;3.00;;;20.30;42.90;;;;;;5080664;28;20063;-58
2021/03/24 10:03:10;;;;;;;6.03;2.92;;;20.30;42.90;;;;;;5086830;28;20032;-58
2021/03/24 10:05:43;;;;;;;4.13;3.10;;;20.30;42.90;;;;;;5090122;28;20093;-58
2021/03/24 10:08:16;;;;;;;7.45;2.90;;;20.30;42.90;;;;;;5081807;28;20036;-58
2021/03/24 10:10:44;;;;;;;6.18;2.80;;;20.30;42.90;;;;;;5091117;28;20028;-57
2021/03/24 10:13:18;;;;;;;5.55;2.60;;;20.30;42.90;;;;;;5081190;28;20056;-58
2021/03/24 10:16:08;;;;;;;4.47;2.70;;;20.40;42.90;;;;;;5085016;28;20020;-58
2021/03/24 10:18:40;;;;;;;4.82;2.92;;;20.40;43.00;;;;;;5072787;28;20067;-58
2021/03/24 10:21:25;;;;;;;3.78;2.60;;;20.40;42.90;;;;;;5089413;28;20088;-59
2021/03/24 10:23:59;;;;;;;4.78;2.70;;;20.40;42.90;;;;;;5089356;28;20024;-58
2021/03/24 10:26:24;;;;;;;5.38;2.78;;;20.40;42.80;;;;;;5084750;28;20028;-58
2021/03/24 10:28:52;;;;;;;3.92;3.05;;;20.40;42.90;;;;;;5072145;28;20024;-58
2021/03/24 10:31:34;;;;;;;4.55;2.53;;;20.40;42.90;;;;;;5087413;28;20048;-58
2021/03/24 10:34:12;;;;;;;5.63;2.35;;;20.40;43.60;;;;;;5091527;28;20030;-58
2021/03/24 10:36:55;;;;;;;3.45;2.72;;;20.40;42.80;;;;;;5085737;28;20500;-58
2021/03/24 10:39:32;;;;;;;4.05;2.58;;;20.50;42.90;;;;;;5076937;28;20108;-58
2021/03/24 10:42:16;;;;;;;4.88;2.50;;;20.40;42.80;;;;;;5077586;28;20020;-59
2021/03/24 10:44:56;;;;;;;4.45;2.50;;;20.50;43.00;;;;;;5092793;28;20035;-58
2021/03/24 10:47:45;;;;;;;4.10;2.28;;;20.40;42.90;;;;;;5083954;28;20032;-58
2021/03/24 10:50:10;;;;;;;4.07;2.97;;;20.40;42.90;;;;;;5079569;28;20028;-59
2021/03/24 10:53:01;;;;;;;3.00;2.30;;;20.40;42.90;;;;;;5093211;28;20080;-58
2021/03/24 10:55:29;;;;;;;4.20;2.78;;;20.40;42.90;;;;;;5077788;28;20334;-58
2021/03/24 10:58:11;;;;;;;3.25;2.58;;;20.50;43.00;;;;;;5082672;28;20453;-58
2021/03/24 11:00:42;;;;;;;;;;;20.50;43.00;;;;;;5092708;28;20031;-52
2021/03/24 11:03:08;;;;;;;4.13;2.70;;;20.50;42.50;;;;;;5077187;28;19907;-58
2021/03/24 11:05:39;;;;;;;4.72;2.90;;;20.50;42.70;;;;;;5074119;28;20063;-59
2021/03/24 11:08:11;;;;;;;2.85;2.25;;;20.50;42.80;;;;;;5088700;28;20066;-59
2021/03/24 11:10:48;;;;;;;3.67;2.60;;;20.50;42.80;;;;;;5087656;28;20024;-59
2021/03/24 11:13:20;;;;;;;4.82;2.80;;;20.50;42.80;;;;;;5084422;28;20052;-49
2021/03/24 11:16:11;;;;;;;6.65;2.70;;;20.50;42.90;;;;;;5086890;28;20095;-58
2021/03/24 11:18:50;;;;;;;3.08;2.50;;;20.50;42.90;;;;;;5084305;28;20076;-58
2021/03/24 11:21:34;;;;;;;3.95;2.50;;;20.50;43.00;;;;;;5092743;28;20354;-58
2021/03/24 11:24:08;;;;;;;3.47;2.20;;;20.50;42.90;;;;;;5088665;28;20060;-58
2021/03/24 11:27:06;;;;;;;5.28;2.63;;;20.50;42.90;;;;;;5083113;28;20111;-58
2021/03/24 11:29:37;;;;;;;5.22;2.60;;;20.50;43.10;;;;;;5073659;28;20036;-58
2021/03/24 11:32:17;;;;;;;3.75;2.40;;;20.50;43.00;;;;;;5080639;28;20382;-58
2021/03/24 11:34:55;;;;;;;6.65;1.98;;;20.50;43.20;;;;;;5093276;28;20070;-58
2021/03/24 11:37:38;;;;;;;3.05;2.20;;;20.50;43.20;;;;;;5086192;28;20020;-58
2021/03/24 11:40:25;;;;;;;5.93;2.72;;;20.50;43.50;;;;;;5085984;28;20028;-58
2021/03/24 11:42:59;;;;;;;4.25;2.70;;;20.50;43.80;;;;;;5090943;28;20423;-59
2021/03/24 11:45:26;;;;;;;6.63;3.35;;;20.70;43.90;;;;;;5089170;28;20021;-54
2021/03/24 11:48:13;;;;;;;3.97;2.40;;;20.60;43.90;;;;;;5090810;28;20024;-60
2021/03/24 11:51:01;;;;;;;4.18;2.40;;;20.60;43.90;;;;;;5079935;28;20028;-59
2021/03/24 11:53:48;;;;;;;3.97;2.22;;;20.60;44.20;;;;;;5088197;28;20025;-59
2021/03/24 11:56:55;;;;;;;3.75;2.45;;;20.60;44.90;;;;;;5083958;28;20031;-58
2021/03/24 11:59:51;;;;;;;3.88;2.42;;;20.60;45.40;;;;;;5073436;28;20028;-58
2021/03/24 12:02:58;;;;;;;3.72;2.42;;;20.70;46.20;;;;;;5082256;28;20028;-59
2021/03/24 12:05:28;;;;;;;3.45;2.50;;;20.70;46.80;;;;;;5063733;28;20054;-59
2021/03/24 12:08:11;;;;;;;3.15;2.15;;;20.70;47.00;;;;;;5079759;28;20116;-59
2021/03/24 12:10:42;;;;;;;5.45;2.70;;;20.70;46.80;;;;;;5092103;28;20481;-60
2021/03/24 12:13:17;;;;;;;5.72;2.30;;;20.70;46.80;;;;;;5087200;28;20047;-58
2021/03/24 12:15:43;;;;;;;3.45;2.40;;;20.60;46.60;;;;;;5073874;28;20162;-59
2021/03/24 12:18:16;;;;;;;4.03;2.58;;;20.70;46.60;;;;;;5073822;28;20029;-59
2021/03/24 12:20:59;;;;;;;5.22;2.53;;;20.70;46.50;;;;;;5088724;28;20032;-59
2021/03/24 12:23:29;;;;;;;5.07;2.30;;;20.70;46.40;;;;;;5073494;28;20021;-58
2021/03/24 12:25:58;;;;;;;3.45;2.17;;;20.70;46.30;;;;;;5071504;28;20074;-59
2021/03/24 12:28:28;;;;;;;4.10;2.28;;;20.70;46.20;;;;;;5080533;28;20129;-58
2021/03/24 12:31:06;;;;;;;3.83;2.47;;;20.70;46.20;;;;;;5089616;28;20051;-59
2021/03/24 12:33:34;;;;;;;2.90;2.22;;;20.70;46.10;;;;;;5092507;28;20044;-58
2021/03/24 12:36:14;;;;;;;3.38;2.40;;;20.70;46.00;;;;;;5073972;28;20373;-59
2021/03/24 12:38:56;;;;;;;2.72;2.22;;;20.60;45.90;;;;;;5088067;28;20035;-57
2021/03/24 12:41:29;;;;;;;3.90;2.50;;;20.70;45.90;;;;;;5086647;28;20028;-58
2021/03/24 12:44:19;;;;;;;3.45;2.17;;;20.70;45.90;;;;;;5073226;28;20028;-59
2021/03/24 12:46:52;;;;;;;3.35;2.17;;;20.70;45.80;;;;;;5080554;28;20028;-58
2021/03/24 12:49:24;;;;;;;4.18;2.58;;;20.70;45.70;;;;;;5085328;28;20024;-58
2021/03/24 12:52:16;;;;;;;;;;;20.80;46.00;;;;;;5090011;28;20115;-60
2021/03/24 12:54:42;;;;;;;4.40;2.67;;;20.70;45.90;;;;;;5064593;28;19908;-59
2021/03/24 12:57:25;;;;;;;4.78;2.45;;;20.70;45.90;;;;;;5086082;28;20081;-58
2021/03/24 13:00:15;;;;;;;2.58;1.92;;;20.80;45.80;;;;;;5079012;28;20031;-59
2021/03/24 13:03:02;;;;;;;3.85;2.40;;;20.80;46.40;;;;;;5086755;28;20032;-58
2021/03/24 13:05:46;;;;;;;3.53;2.20;;;20.80;45.70;;;;;;5077912;28;20043;-59
2021/03/24 13:08:32;;;;;;;3.88;2.33;;;20.80;45.70;;;;;;5091098;28;20035;-59
2021/03/24 13:11:22;;;;;;;3.70;2.63;;;20.80;45.50;;;;;;5089021;28;20089;-59
2021/03/24 13:14:19;;;;;;;6.97;2.17;;;20.80;45.50;;;;;;5087463;28;20028;-53
2021/03/24 13:16:58;;;;;;;5.40;2.33;;;20.80;45.40;;;;;;5072127;28;20029;-50
2021/03/24 13:19:38;;;;;;;3.13;2.38;;;20.80;45.40;;;;;;5083140;28;20024;-58
2021/03/24 13:22:13;;;;;;;2.70;2.00;;;20.80;45.30;;;;;;5084332;28;20542;-58
2021/03/24 13:25:09;;;;;;;4.28;2.22;;;20.80;45.20;;;;;;5082826;28;20056;-58
2021/03/24 13:28:11;;;;;;;2.45;1.85;;;20.80;45.10;;;;;;5072436;28;20040;-59
2021/03/24 13:30:57;;;;;;;3.45;2.85;;;20.80;45.70;;;;;;5081013;28;20040;-59
2021/03/24 13:33:36;;;;;;;2.83;1.90;;;20.80;45.10;;;;;;5071721;28;20075;-59
2021/03/24 13:36:13;;;;;;;2.78;2.03;;;20.80;45.10;;;;;;5080554;28;20788;-59
2021/03/24 13:39:01;;;;;;;3.05;1.90;;;20.80;44.90;;;;;;5091393;28;20173;-59
2021/03/24 13:41:28;;;;;;;3.08;2.10;;;20.80;45.00;;;;;;5071570;28;20431;-58